createdAt,value
2019-01-12T00:00:38.230Z,6.50
2019-01-12T00:03:08.876Z,6.40
2019-01-12T00:05:38.064Z,6.40
2019-01-12T00:08:06.961Z,6.60
2019-01-12T00:10:35.911Z,6.70
2019-01-12T00:13:04.816Z,6.80
2019-01-12T00:15:36.469Z,6.80
2019-01-12T00:18:05.757Z,6.80
2019-01-12T00:20:34.715Z,6.90
2019-01-12T00:23:03.701Z,6.70
2019-01-12T00:25:32.669Z,6.70
2019-01-12T00:28:01.588Z,6.60
2019-01-12T00:30:30.571Z,6.70
2019-01-12T00:32:59.529Z,6.70
2019-01-12T00:35:28.467Z,6.70
2019-01-12T00:37:57.764Z,6.70
2019-01-12T00:40:26.584Z,6.70
2019-01-12T00:42:55.445Z,6.60
2019-01-12T00:45:24.336Z,6.80
2019-01-12T00:47:53.213Z,6.70
2019-01-12T00:50:22.234Z,6.60
2019-01-12T00:52:51.079Z,6.50
2019-01-12T00:55:19.932Z,6.60
2019-01-12T00:57:48.763Z,6.70
2019-01-12T01:00:20.273Z,6.60
2019-01-12T01:02:49.334Z,6.60
2019-01-12T01:05:18.183Z,6.50
2019-01-12T01:07:47.156Z,6.30
2019-01-12T01:10:18.406Z,6.30
2019-01-12T01:12:47.378Z,6.30
2019-01-12T01:15:16.636Z,6.20
2019-01-12T01:17:45.622Z,6.40
2019-01-12T01:20:15.371Z,6.50
2019-01-12T01:22:44.401Z,6.50
2019-01-12T01:25:13.871Z,6.50
2019-01-12T01:27:42.926Z,6.20
2019-01-12T01:30:17.549Z,6.10
2019-01-12T01:32:46.801Z,6.00
2019-01-12T01:35:15.789Z,6.00
2019-01-12T01:37:44.822Z,6.10
2019-01-12T01:40:16.671Z,6.10
2019-01-12T01:42:45.653Z,6.10
2019-01-12T01:45:15.723Z,6.20
2019-01-12T01:47:47.830Z,6.10
2019-01-12T01:50:16.935Z,6.20
2019-01-12T01:52:45.950Z,6.30
2019-01-12T01:55:14.905Z,6.30
2019-01-12T01:57:43.891Z,6.40
2019-01-12T02:00:19.266Z,6.30
2019-01-12T02:02:48.105Z,6.40
2019-01-12T02:05:17.028Z,6.10
2019-01-12T02:07:45.812Z,6.30
2019-01-12T02:10:19.912Z,6.20
2019-01-12T02:12:48.869Z,6.00
2019-01-12T02:15:19.017Z,6.10
2019-01-12T02:17:48.003Z,6.20
2019-01-12T02:20:17.043Z,6.30
2019-01-12T02:22:45.978Z,6.30
2019-01-12T02:25:15.066Z,6.30
2019-01-12T02:27:43.979Z,6.30
2019-01-12T02:30:19.666Z,6.20
2019-01-12T02:32:48.529Z,6.30
2019-01-12T02:35:17.539Z,6.20
2019-01-12T02:37:46.574Z,6.30
2019-01-12T02:40:15.621Z,6.30
2019-01-12T02:42:52.238Z,6.40
2019-01-12T02:45:18.748Z,6.40
2019-01-12T02:47:47.800Z,6.30
2019-01-12T02:50:16.799Z,6.00
2019-01-12T02:52:45.703Z,6.10
2019-01-12T02:55:14.718Z,6.20
2019-01-12T02:57:43.569Z,6.20
2019-01-12T03:00:15.422Z,6.10
2019-01-12T03:02:44.394Z,6.20
2019-01-12T03:05:13.413Z,6.20
2019-01-12T03:07:42.584Z,6.20
2019-01-12T03:10:12.541Z,6.20
2019-01-12T03:12:41.515Z,6.20
2019-01-12T03:15:12.618Z,6.20
2019-01-12T03:17:41.448Z,6.20
2019-01-12T03:20:12.942Z,6.00
2019-01-12T03:22:41.844Z,6.10
2019-01-12T03:25:17.550Z,5.90
2019-01-12T03:27:41.959Z,5.80
2019-01-12T03:30:16.888Z,6.00
2019-01-12T03:32:45.952Z,6.20
2019-01-12T03:35:15.483Z,6.00
2019-01-12T03:37:44.403Z,6.00
2019-01-12T03:40:21.209Z,6.00
2019-01-12T03:42:50.155Z,6.10
2019-01-12T03:45:22.503Z,6.10
2019-01-12T03:47:51.533Z,6.20
2019-01-12T03:50:20.633Z,6.20
2019-01-12T03:52:49.697Z,6.20
2019-01-12T03:55:25.531Z,6.20
2019-01-12T03:57:49.251Z,6.20
2019-01-12T04:00:23.468Z,6.00
2019-01-12T04:02:52.563Z,5.90
2019-01-12T04:05:21.631Z,6.00
2019-01-12T04:07:50.484Z,6.20
2019-01-12T04:10:19.382Z,6.20
2019-01-12T04:12:48.249Z,6.10
2019-01-12T04:15:17.235Z,6.00
2019-01-12T04:17:46.413Z,5.90
2019-01-12T04:20:16.722Z,6.00
2019-01-12T04:22:45.773Z,6.10
2019-01-12T04:25:14.659Z,6.10
2019-01-12T04:27:43.595Z,6.00
2019-01-12T04:30:14.733Z,6.00
2019-01-12T04:32:43.741Z,6.00
2019-01-12T04:35:12.760Z,6.00
2019-01-12T04:37:41.627Z,6.10
2019-01-12T04:40:13.992Z,6.30
2019-01-12T04:42:42.878Z,6.20
2019-01-12T04:45:11.884Z,6.30
2019-01-12T04:47:40.872Z,6.40
2019-01-12T04:50:12.015Z,6.30
2019-01-12T04:52:41.030Z,6.10
2019-01-12T04:55:10.027Z,6.20
2019-01-12T04:57:38.955Z,6.20
2019-01-12T05:00:10.773Z,6.20
2019-01-12T05:02:39.673Z,6.30
2019-01-12T05:05:09.234Z,6.20
2019-01-12T05:07:38.088Z,6.10
2019-01-12T05:10:08.276Z,6.10
2019-01-12T05:12:37.147Z,6.20
2019-01-12T05:15:09.655Z,6.20
2019-01-12T05:17:38.640Z,6.30
2019-01-12T05:20:10.403Z,6.30
2019-01-12T05:22:39.268Z,6.20
2019-01-12T05:25:08.668Z,6.20
2019-01-12T05:27:37.483Z,6.10
2019-01-12T05:30:07.396Z,6.20
2019-01-12T05:32:36.362Z,6.20
2019-01-12T05:35:05.685Z,6.30
2019-01-12T05:37:34.548Z,6.10
2019-01-12T05:40:03.808Z,6.30
2019-01-12T05:42:32.648Z,6.40
2019-01-12T05:45:01.612Z,6.20
2019-01-12T05:47:30.528Z,6.10
2019-01-12T05:49:59.639Z,6.10
2019-01-12T05:52:28.443Z,6.00
2019-01-12T05:54:57.246Z,6.20
2019-01-12T05:57:26.021Z,6.20
2019-01-12T05:59:54.788Z,6.20
2019-01-12T06:02:23.681Z,6.30
2019-01-12T06:04:52.565Z,6.40
2019-01-12T06:07:21.460Z,6.50
2019-01-12T06:09:50.328Z,6.50
2019-01-12T06:12:19.262Z,6.50
2019-01-12T06:14:48.163Z,6.50
2019-01-12T06:17:17.033Z,6.50
2019-01-12T06:19:45.917Z,6.60
2019-01-12T06:22:14.855Z,6.50
2019-01-12T06:24:43.705Z,6.50
2019-01-12T06:27:12.499Z,6.30
2019-01-12T06:29:41.321Z,6.40
2019-01-12T06:32:10.095Z,6.30
2019-01-12T06:34:38.976Z,6.50
2019-01-12T06:37:09.724Z,6.50
2019-01-12T06:39:38.507Z,6.50
2019-01-12T06:42:07.433Z,6.40
2019-01-12T06:44:36.453Z,6.40
2019-01-12T06:47:05.372Z,6.40
2019-01-12T06:49:34.402Z,6.50
2019-01-12T06:52:03.303Z,6.50
2019-01-12T06:54:32.259Z,6.40
2019-01-12T06:57:01.138Z,6.40
2019-01-12T06:59:29.938Z,6.50
2019-01-12T07:01:58.757Z,6.60
2019-01-12T07:04:27.615Z,6.70
2019-01-12T07:06:56.421Z,6.70
2019-01-12T07:09:25.312Z,6.80
2019-01-12T07:11:54.117Z,6.90
2019-01-12T07:14:22.906Z,6.70
2019-01-12T07:16:51.798Z,6.80
2019-01-12T07:19:20.571Z,7.00
2019-01-12T07:21:49.557Z,7.00
2019-01-12T07:24:18.421Z,7.00
2019-01-12T07:26:47.498Z,6.90
2019-01-12T07:29:19.785Z,6.60
2019-01-12T07:31:48.778Z,6.60
2019-01-12T07:34:54.916Z,6.60
2019-01-12T07:37:23.728Z,6.70
2019-01-12T07:39:52.776Z,6.70
2019-01-12T07:42:22.115Z,6.60
2019-01-12T07:44:51.187Z,6.80
2019-01-12T07:47:20.013Z,6.80
2019-01-12T07:49:51.940Z,6.80
2019-01-12T07:52:20.853Z,6.40
2019-01-12T07:54:49.812Z,6.50
2019-01-12T07:57:29.689Z,6.40
2019-01-12T07:59:58.514Z,6.50
2019-01-12T08:02:27.340Z,6.50
2019-01-12T08:05:01.728Z,6.40
2019-01-12T08:07:33.453Z,6.50
2019-01-12T08:10:02.325Z,6.40
2019-01-12T08:12:31.388Z,6.50
2019-01-12T08:15:00.259Z,6.50
2019-01-12T08:17:29.088Z,6.50
2019-01-12T08:19:57.954Z,6.40
2019-01-12T08:22:26.835Z,6.30
2019-01-12T08:24:55.626Z,6.30
2019-01-12T08:27:25.538Z,6.30
2019-01-12T08:30:08.565Z,6.30
2019-01-12T08:32:43.237Z,6.40
2019-01-12T08:35:12.271Z,6.60
2019-01-12T08:37:41.071Z,6.60
2019-01-12T08:40:11.073Z,6.70
2019-01-12T08:42:39.931Z,6.70
2019-01-12T08:45:11.331Z,6.50
2019-01-12T08:47:40.563Z,6.50
2019-01-12T08:50:12.829Z,6.40
2019-01-12T08:52:41.677Z,6.30
2019-01-12T08:55:10.917Z,6.40
2019-01-12T08:57:39.768Z,6.40
2019-01-12T09:00:12.210Z,6.50
2019-01-12T09:03:09.521Z,6.50
2019-01-12T09:05:54.996Z,6.50
2019-01-12T09:08:23.925Z,6.50
2019-01-12T09:10:52.775Z,6.40
2019-01-12T09:13:21.649Z,6.30
2019-01-12T09:15:50.492Z,6.20
2019-01-12T09:18:19.309Z,6.20
2019-01-12T09:20:48.298Z,6.20
2019-01-12T09:23:17.095Z,6.30
2019-01-12T09:25:48.050Z,6.20
2019-01-12T09:28:16.715Z,6.10
2019-01-12T09:30:48.513Z,6.10
2019-01-12T09:33:16.272Z,6.20
2019-01-12T09:35:45.239Z,6.40
2019-01-12T09:38:14.218Z,6.50
2019-01-12T09:40:43.105Z,6.40
2019-01-12T09:43:12.027Z,6.40
2019-01-12T09:45:40.878Z,6.50
2019-01-12T09:48:09.820Z,6.30
2019-01-12T09:50:39.835Z,6.30
2019-01-12T09:53:08.696Z,6.40
2019-01-12T09:55:37.649Z,6.40
2019-01-12T09:58:06.793Z,6.50
2019-01-12T10:00:35.703Z,6.50
2019-01-12T10:03:04.637Z,6.60
2019-01-12T10:05:33.465Z,6.60
2019-01-12T10:08:05.732Z,6.50
2019-01-12T10:10:34.837Z,6.40
2019-01-12T10:13:03.778Z,6.70
2019-01-12T10:15:32.611Z,6.60
2019-01-12T10:18:01.438Z,6.70
2019-01-12T10:20:30.498Z,6.50
2019-01-12T10:22:59.753Z,6.70
2019-01-12T10:25:29.041Z,6.80
2019-01-12T10:27:58.003Z,7.00
2019-01-12T10:30:27.615Z,7.00
2019-01-12T10:32:56.583Z,7.00
2019-01-12T10:35:25.947Z,7.20
2019-01-12T10:37:55.200Z,7.30
2019-01-12T10:40:26.648Z,7.20
2019-01-12T10:42:58.595Z,7.10
2019-01-12T10:45:27.515Z,7.30
2019-01-12T10:47:56.524Z,7.20
2019-01-12T10:50:28.657Z,7.40
2019-01-12T10:52:57.656Z,7.40
2019-01-12T10:55:26.574Z,7.50
2019-01-12T10:57:55.500Z,7.30
2019-01-12T11:00:27.350Z,7.30
2019-01-12T11:02:56.520Z,7.10
2019-01-12T11:05:25.805Z,7.10
2019-01-12T11:07:56.027Z,7.20
2019-01-12T11:10:25.140Z,7.00
2019-01-12T11:12:54.215Z,7.20
2019-01-12T11:15:23.226Z,7.30
2019-01-12T11:17:52.340Z,7.50
2019-01-12T11:20:21.219Z,7.40
2019-01-12T11:22:50.600Z,7.30
2019-01-12T11:25:20.450Z,7.40
2019-01-12T11:28:00.303Z,7.40
2019-01-12T11:30:29.251Z,7.40
2019-01-12T11:32:58.146Z,7.40
2019-01-12T11:35:26.967Z,7.40
2019-01-12T11:37:55.752Z,7.50
2019-01-12T11:40:24.687Z,7.40
2019-01-12T11:42:53.969Z,7.30
2019-01-12T11:45:22.996Z,7.30
2019-01-12T11:47:51.969Z,7.40
2019-01-12T11:50:20.801Z,7.30
2019-01-12T11:52:49.968Z,7.20
2019-01-12T11:55:19.919Z,7.20
2019-01-12T11:57:48.916Z,7.10
2019-01-12T12:00:28.580Z,7.10
2019-01-12T12:02:57.692Z,7.40
2019-01-12T12:05:26.639Z,7.20
2019-01-12T12:07:55.753Z,7.20
2019-01-12T12:10:25.182Z,7.10
2019-01-12T12:12:58.395Z,7.20
2019-01-12T12:15:33.198Z,7.30
2019-01-12T12:17:59.875Z,7.30
2019-01-12T12:20:29.571Z,7.40
2019-01-12T12:22:58.642Z,7.20
2019-01-12T12:25:27.560Z,7.40
2019-01-12T12:27:57.399Z,7.50
2019-01-12T12:30:30.998Z,7.50
2019-01-12T12:33:00.062Z,7.40
2019-01-12T12:35:29.132Z,7.40
2019-01-12T12:37:58.085Z,7.40
2019-01-12T12:40:27.524Z,7.40
2019-01-12T12:42:56.606Z,7.30
2019-01-12T12:45:31.079Z,7.20
2019-01-12T12:47:59.987Z,7.30
2019-01-12T12:50:29.019Z,7.40
2019-01-12T12:52:57.961Z,7.40
2019-01-12T12:55:27.145Z,7.10
2019-01-12T12:57:56.314Z,7.30
2019-01-12T13:00:28.242Z,7.40
2019-01-12T13:02:57.196Z,7.40
2019-01-12T13:05:26.159Z,7.50
2019-01-12T13:07:55.077Z,7.60
2019-01-12T13:10:26.541Z,7.60
2019-01-12T13:12:57.034Z,7.40
2019-01-12T13:15:25.880Z,7.40
2019-01-12T13:17:54.687Z,7.50
2019-01-12T13:20:23.536Z,7.40
2019-01-12T13:22:52.528Z,7.30
2019-01-12T13:25:21.651Z,7.40
2019-01-12T13:27:50.683Z,7.40
2019-01-12T13:30:25.077Z,7.40
2019-01-12T13:32:54.113Z,7.20
2019-01-12T13:35:23.034Z,7.10
2019-01-12T13:37:52.211Z,7.40
2019-01-12T13:40:23.430Z,7.50
2019-01-12T13:42:52.894Z,7.60
2019-01-12T13:45:22.184Z,7.60
2019-01-12T13:47:51.180Z,7.60
2019-01-12T13:50:22.507Z,7.40
2019-01-12T13:52:51.469Z,7.60
2019-01-12T13:55:20.525Z,7.40
2019-01-12T13:57:49.472Z,7.20
2019-01-12T14:00:35.596Z,7.10
2019-01-12T14:03:06.834Z,7.00
2019-01-12T14:05:35.830Z,7.00
2019-01-12T14:08:06.362Z,7.00
2019-01-12T14:10:35.317Z,6.90
2019-01-12T14:13:05.396Z,6.70
2019-01-12T14:15:35.991Z,6.80
2019-01-12T14:18:05.917Z,6.90
2019-01-12T14:20:37.191Z,7.00
2019-01-12T14:23:08.315Z,6.80
2019-01-12T14:25:37.364Z,6.70
2019-01-12T14:28:06.578Z,6.70
2019-01-12T14:30:35.489Z,6.60
2019-01-12T14:33:06.085Z,6.50
2019-01-12T14:35:35.737Z,6.40
2019-01-12T14:38:04.997Z,6.20
2019-01-12T14:40:34.980Z,6.20
2019-01-12T14:43:06.768Z,6.20
2019-01-12T14:45:36.193Z,6.30
2019-01-12T14:48:05.880Z,6.00
2019-01-12T14:50:34.654Z,6.10
2019-01-12T14:53:03.608Z,6.10
2019-01-12T14:55:33.385Z,6.00
2019-01-12T14:58:03.060Z,6.20
2019-01-12T15:00:34.303Z,6.20
2019-01-12T15:03:10.363Z,6.10
2019-01-12T15:05:44.047Z,6.10
2019-01-12T15:08:31.742Z,6.20
2019-01-12T15:11:08.787Z,6.10
2019-01-12T15:13:37.718Z,6.00
2019-01-12T15:16:06.619Z,6.20
2019-01-12T15:18:35.712Z,6.20
2019-01-12T15:21:04.771Z,6.20
2019-01-12T15:23:33.742Z,6.30
2019-01-12T15:26:02.577Z,6.10
2019-01-12T15:28:31.497Z,6.00
2019-01-12T15:31:00.316Z,6.20
2019-01-12T15:33:29.247Z,6.10
2019-01-12T15:35:58.835Z,6.10
2019-01-12T15:38:27.687Z,6.00
2019-01-12T15:40:56.726Z,6.10
2019-01-12T15:43:25.632Z,6.20
2019-01-12T15:45:54.474Z,6.20
2019-01-12T15:48:23.503Z,6.20
2019-01-12T15:54:50.995Z,6.10
2019-01-12T15:58:16.148Z,6.20
2019-01-12T16:00:48.714Z,6.00
2019-01-12T16:03:22.260Z,6.10
2019-01-12T16:05:51.734Z,6.10
2019-01-12T16:08:25.262Z,5.90
2019-01-12T16:11:19.075Z,5.90
2019-01-12T16:13:47.216Z,5.90
2019-01-12T16:16:16.080Z,5.90
2019-01-12T16:18:46.485Z,6.00
2019-01-12T16:21:16.071Z,5.90
2019-01-12T16:23:46.142Z,5.90
2019-01-12T16:26:15.291Z,6.00
2019-01-12T16:28:44.298Z,6.00
2019-01-12T16:31:38.919Z,6.00
2019-01-12T16:34:07.929Z,5.90
2019-01-12T16:36:36.754Z,5.80
2019-01-12T16:39:08.318Z,5.80
2019-01-12T16:41:37.215Z,6.00
2019-01-12T16:44:06.147Z,6.10
2019-01-12T16:46:35.047Z,6.10
2019-01-12T16:49:03.926Z,6.00
2019-01-12T16:51:32.942Z,5.90
2019-01-12T16:54:01.777Z,5.90
2019-01-12T16:56:30.741Z,5.90
2019-01-12T16:58:59.666Z,5.90
2019-01-12T17:01:28.543Z,5.90
2019-01-12T17:04:00.615Z,5.90
2019-01-12T17:06:31.316Z,5.90
2019-01-12T17:09:00.178Z,6.00
2019-01-12T17:11:29.208Z,5.90
2019-01-12T17:13:58.030Z,5.80
2019-01-12T17:16:26.900Z,5.80
2019-01-12T17:18:55.925Z,5.90
2019-01-12T17:21:24.817Z,5.90
2019-01-12T17:23:53.767Z,5.70
2019-01-12T17:26:22.670Z,5.90
2019-01-12T17:28:51.721Z,5.80
2019-01-12T17:31:21.004Z,5.90
2019-01-12T17:33:49.971Z,5.90
2019-01-12T17:36:18.802Z,5.70
2019-01-12T17:38:47.666Z,5.80
2019-01-12T17:41:16.619Z,5.90
2019-01-12T17:43:45.471Z,5.90
2019-01-12T17:46:14.433Z,5.90
2019-01-12T17:48:43.377Z,5.90
2019-01-12T17:51:12.478Z,5.90
2019-01-12T17:53:41.391Z,6.00
2019-01-12T17:56:10.532Z,5.90
2019-01-12T17:58:44.568Z,6.00
2019-01-12T18:01:13.343Z,6.00
2019-01-12T18:03:42.192Z,6.10
2019-01-12T18:06:11.069Z,6.10
2019-01-12T18:08:39.919Z,6.20
2019-01-12T18:11:08.874Z,6.00
2019-01-12T18:13:37.802Z,6.10
2019-01-12T18:16:07.193Z,6.30
2019-01-12T18:18:36.164Z,6.30
2019-01-12T18:21:05.386Z,6.40
2019-01-12T18:23:34.826Z,6.40
2019-01-12T18:26:03.781Z,6.50
2019-01-12T18:28:32.672Z,6.60
2019-01-12T18:31:01.561Z,6.50
2019-01-12T18:33:30.669Z,6.60
2019-01-12T18:35:59.623Z,6.50
2019-01-12T18:38:28.613Z,6.30
2019-01-12T18:40:57.561Z,6.50
2019-01-12T18:43:26.785Z,6.60
2019-01-12T18:45:55.906Z,6.60
2019-01-12T18:48:24.914Z,6.70
2019-01-12T18:50:53.821Z,6.80
2019-01-12T18:53:22.960Z,6.70
2019-01-12T18:55:52.355Z,6.90
2019-01-12T18:58:21.275Z,6.80
2019-01-12T19:00:50.172Z,6.80
2019-01-12T19:03:19.106Z,6.80
2019-01-12T19:05:47.955Z,6.80
2019-01-12T19:08:16.909Z,6.80
2019-01-12T19:10:45.944Z,6.80
2019-01-12T19:13:15.090Z,6.60
2019-01-12T19:15:43.869Z,6.60
2019-01-12T19:18:12.945Z,6.60
2019-01-12T19:20:41.779Z,6.70
2019-01-12T19:23:10.905Z,6.80
2019-01-12T19:25:39.884Z,6.80
2019-01-12T19:28:08.815Z,6.80
2019-01-12T19:30:38.050Z,7.00
2019-01-12T19:33:07.084Z,7.00
2019-01-12T19:35:36.100Z,6.80
2019-01-12T19:38:07.396Z,6.90
2019-01-12T19:40:38.516Z,7.00
2019-01-12T19:43:07.720Z,7.00
2019-01-12T19:45:36.595Z,7.20
2019-01-12T19:48:05.557Z,7.10
2019-01-12T19:50:34.439Z,7.00
2019-01-12T19:53:03.334Z,6.90
2019-01-12T19:55:32.215Z,6.90
2019-01-12T19:58:02.383Z,6.90
2019-01-12T20:00:33.019Z,6.90
2019-01-12T20:03:01.947Z,6.90
2019-01-12T20:05:30.862Z,7.00
2019-01-12T20:07:59.912Z,7.10
2019-01-12T20:10:28.797Z,7.00
2019-01-12T20:12:57.896Z,7.00
2019-01-12T20:15:26.918Z,6.80
2019-01-12T20:17:56.959Z,7.00
2019-01-12T20:20:25.763Z,7.00
2019-01-12T20:22:54.728Z,7.10
2019-01-12T20:25:26.248Z,7.10
2019-01-12T20:27:55.173Z,7.30
2019-01-12T20:30:49.098Z,7.30
2019-01-12T20:33:36.718Z,7.40
2019-01-12T20:36:49.776Z,7.40
2019-01-12T20:40:01.817Z,7.20
2019-01-12T20:43:21.156Z,7.10
2019-01-12T20:46:32.980Z,7.10
2019-01-12T20:49:19.270Z,7.00
2019-01-12T20:52:25.043Z,7.10
2019-01-12T20:55:42.297Z,7.00
2019-01-12T20:58:40.931Z,7.20
2019-01-12T21:01:54.243Z,7.20
2019-01-12T21:05:04.754Z,7.10
2019-01-12T21:08:04.619Z,7.10
2019-01-12T21:11:09.802Z,7.20
2019-01-12T21:14:01.653Z,7.10
2019-01-12T21:16:34.315Z,7.20
2019-01-12T21:19:03.140Z,7.30
2019-01-12T21:21:32.109Z,7.30
2019-01-12T21:24:00.996Z,7.20
2019-01-12T21:26:29.949Z,7.20
2019-01-12T21:28:59.206Z,7.20
2019-01-12T21:31:31.469Z,7.30
2019-01-12T21:34:00.544Z,7.20
2019-01-12T21:36:30.298Z,7.10
2019-01-12T21:38:59.499Z,7.30
2019-01-12T21:41:28.386Z,7.10
2019-01-12T21:43:57.380Z,7.10
2019-01-12T21:46:26.270Z,7.00
2019-01-12T21:48:55.702Z,7.00
2019-01-12T21:51:25.090Z,7.10
2019-01-12T21:53:54.433Z,7.00
2019-01-12T21:56:23.576Z,7.00
2019-01-12T21:58:54.750Z,6.90
2019-01-12T22:01:24.101Z,7.10
2019-01-12T22:04:00.173Z,7.10
2019-01-12T22:06:31.373Z,6.90
2019-01-12T22:09:00.452Z,6.80
2019-01-12T22:11:32.378Z,6.80
2019-01-12T22:14:01.278Z,6.60
2019-01-12T22:16:30.576Z,6.80
2019-01-12T22:18:59.882Z,6.80
2019-01-12T22:21:29.108Z,6.60
2019-01-12T22:23:57.985Z,6.60
2019-01-12T22:26:27.055Z,6.60
2019-01-12T22:28:55.962Z,6.80
2019-01-12T22:31:24.842Z,6.80
2019-01-12T22:33:53.849Z,6.90
2019-01-12T22:36:22.956Z,6.80
2019-01-12T22:38:51.957Z,6.80
2019-01-12T22:41:20.822Z,7.00
2019-01-12T22:43:49.640Z,7.10
2019-01-12T22:46:18.582Z,6.90
2019-01-12T22:48:51.315Z,6.90
2019-01-12T22:51:20.303Z,6.90
2019-01-12T22:53:49.241Z,6.90
2019-01-12T22:56:19.934Z,6.90
2019-01-12T22:58:48.937Z,6.90
2019-01-12T23:01:42.124Z,7.00
2019-01-12T23:04:11.346Z,6.90
2019-01-12T23:06:40.246Z,6.90
2019-01-12T23:09:11.592Z,7.00
2019-01-12T23:11:40.360Z,7.00
2019-01-12T23:14:09.595Z,7.00
2019-01-12T23:16:38.556Z,7.00
2019-01-12T23:19:07.591Z,7.00
2019-01-12T23:21:36.365Z,6.90
2019-01-12T23:24:05.916Z,6.90
2019-01-12T23:26:34.843Z,6.90
2019-01-12T23:29:03.849Z,6.90
2019-01-12T23:31:32.805Z,6.70
2019-01-12T23:34:01.682Z,6.90
2019-01-12T23:36:30.682Z,6.90
2019-01-12T23:38:59.488Z,6.90
2019-01-12T23:41:28.345Z,7.00
2019-01-12T23:43:57.178Z,7.10
2019-01-12T23:46:25.991Z,7.10
2019-01-12T23:48:56.098Z,7.10
2019-01-12T23:51:25.477Z,7.00
2019-01-12T23:54:33.920Z,7.00
2019-01-12T23:57:02.863Z,7.10
2019-01-12T23:59:31.815Z,7.10
